Terminal Aerodrome Forecast
Issued by NWS

Home | Current Version | Previous Version | Text Only | Print | Product List | Glossary On
Versions: 1 2 3 4 5 6 7 8 9 10 11 12 13 14 15 16 17 18 19 20 21 22 23 24 25 26 27 28 29 30 31
000
FTUS43 KDVN 240500
TAFCID
TAF
KCID 240526Z 2406/2506 32020G28KT 3SM -RA BR OVC006
      TEMPO 2407/2410 2SM -RASN SCT006 OVC012
     FM241000 30020G27KT 2SM -SN BR OVC004
     FM241200 30020G30KT 3SM -SN BR OVC007
     FM241700 29022G32KT 4SM -SHSN OVC012
     FM250000 29018KT P6SM -SHSN BKN025=

USA.gov is the U.S. government's official web portal to all federal, state and local government web resources and services.